Preston, KY (40366)

11:58 PM EDT on September 19, 2014 (GMT -0400)
Ridge Road Jet Center | Change Station
CLOSE
Current Station
Personal Weather Station
Location: Owingsville, KY
Elevation: 899 ft
Nearby Weather Stations

Elev 899 ft 38.14 °N, 83.78 °W | Updated 10 minutes ago

Clear
Clear
60.4 °F
Feels Like 60.4 °F
N
1.1
Wind Variable Wind from NNE

Today
High -- | Low -- °F
--% Chance of Precip.
Yesterday
High -- | Low -- °F
Precip. -- in
7:20 AM 7:36 PM
Waning Crescent, 15% visible
Pressure 30.12 in
Visibility 7.0 miles
Clouds Clear
Dew Point 59 °F
Humidity 94%
Rainfall 0.00 in
Snow Depth Not available.
UV 0 out of 12
Pollen 5.30 out of 12
Air Quality Not available.
Flu Activity Not available.
METAR KIOB 200335Z AUTO 00000KT 7SM CLR 15/14 A3012 RMK AO2

More Conditions Fewer Conditions

Pressure 30.12 in
Visibility 7.0 miles
Clouds Clear
Dew Point 59 °F
Humidity 94%
Rainfall 0.00 in
Snow Depth Not available.
UV 0 out of 12
Pollen 5.30 out of 12
Air Quality Not available.
Flu Activity Not available.
METAR KIOB 200335Z AUTO 00000KT 7SM CLR 15/14 A3012 RMK AO2

More Conditions Fewer Conditions

10-Day Weather Forecast

Almanac

Astronomy

Sep. 19, 2014 Rise Set
Actual Time 7:20 AM EDT 7:36 PM EDT
Civil Twilight 6:53 AM EDT 8:03 PM EDT
Nautical Twilight 6:22 AM EDT 8:33 PM EDT
Astronomical Twilight 5:51 AM EDT 9:05 PM EDT
Moon 3:07 AM EDT (9/19) 5:02 PM EDT (9/19)
Length of Visible Light 13h 09m
Length of Day
12h 16m
Tomorrow will be 2m 26s shorter.
Waning Crescent, 15% of the Moon is Illuminated
Today
Waning Crescent
Sep 24
New
Oct 1
First Quarter
Oct 8
Full
Oct 15
Last Quarter

Today's Extremes

State Highs State Lows

Community

WunderPhotos

Upload Photos

1,754,777 photos uploaded!

WunderBlogs® & News

Nearby

Snow Depth

Station Depth Elevation
No new snow has been reported.

Earthquake Activity

City Distance Mag. Time & Date
No recent earthquake activity has been reported nearby.
Minimum magnitude displayed is 2.5.

Coastal Water Temperatures

Place Temperature
No Stations Reporting

Nearby Weather Stations